• Join FlightAware (Why Join?)
  • Login
  • US Flag 
08:22AM EST


 

Airport Tracker/Info


-or-


 

Live Flight TrackerFlight Track Log ✈ DAL1851 ✈ 08-Jul-2013 ✈ KPHL - KDTW

Flight Track Log - Related Links

Times and Time Zones

All times are in EDT time to prevent confusion due to time zone crossing. See the DAL1851 flight status page for this flight to view local times or setup timezone preferences in your user account.

Time Position Orientation Groundspeed Altitude Reporting Facility
EDT Latitude Longitude Course Direction KTS MPH feet Rate Location/Type
12:45PM 39.8500 -75.2833 270° West 165 190 1,100  Level Philadelphia TRACON
12:46PM 39.8333 -75.3667 255° West 239 275 2,900 1,810 Climbing Philadelphia TRACON
12:47PM 39.8500 -75.4500 285° West 255 293 4,900 2,143 Climbing Philadelphia TRACON
12:49PM 39.8833 -75.5500 294° West 256 295 7,400 2,000 Climbing Philadelphia TRACON
12:50PM 39.9001 -75.8804 270° West  Level FlightAware Approximate
12:50PM 39.9050 -75.6311 289° West 275 316 9,200  Level New York Center
12:51PM 39.9000 -76.0134 270° West  Level FlightAware Approximate
12:51PM 39.9189 -75.7458 279° West 275 316 9,900  Level New York Center
12:52PM 39.9122 -75.8561 266° West 324 373 11,400 1,884 Climbing New York Center
12:53PM 39.9153 -75.9783 272° West 347 399 13,700 1,785 Climbing New York Center
12:54PM 39.9069 -76.1131 265° West 360 414 15,000 1,537 Climbing New York Center
12:55PM 39.9000 -76.2639 267° West 383 441 16,800 1,563 Climbing New York Center
12:56PM 39.8961 -76.3908 268° West 389 448 18,100 1,475 Climbing New York Center
12:57PM 39.9050 -76.5539 274° West 403 464 19,700 1,550 Climbing New York Center
12:58PM 39.9167 -76.6983 276° West 408 470 21,200 1,488 Climbing New York Center
12:59PM 39.9214 -76.8506 272° West 408 470 22,700 1,377 Climbing New York Center
01:00PM 39.9283 -76.9972 274° West 408 470 24,000 1,140 Climbing New York Center
01:01PM 39.9331 -77.1439 272° West 408 470 25,000 1,068 Climbing New York Center
01:02PM 39.9414 -77.2936 274° West 408 470 26,100 1,155 Climbing New York Center
01:04PM 39.9406 -77.5964 270° West 418 481 28,600 1,143 Climbing Cleveland Center
01:05PM 39.9444 -77.7558 272° West 418 481 29,700 700 Climbing Cleveland Center
01:06PM 39.9356 -77.9025 266° West 413 475 30,000 150 Climbing Cleveland Center
01:07PM 39.9264 -78.0517 265° West 413 475 30,000 50 Level Cleveland Center
01:08PM 39.9339 -78.2086 274° West 425 489 30,100  Climbing Cleveland Center
01:09PM 39.9681 -78.3456 288° West 431 496 30,000 -50 Descending Cleveland Center
01:10PM 40.0106 -78.4958 290° West 438 504 30,000  Level Cleveland Center
01:11PM 40.0508 -78.6547 288° West 451 519 30,000  Level Cleveland Center
01:12PM 40.1033 -78.8053 295° West 458 527 30,000  Level Cleveland Center
01:13PM 40.1514 -78.9589 292° West 458 527 30,000  Level Cleveland Center
01:14PM 40.2036 -79.1097 294° West 463 533 30,000 -50 Level Cleveland Center
01:15PM 40.2514 -79.2664 292° West 463 533 29,900 -900 Descending Cleveland Center
01:16PM 40.3053 -79.4206 295° West 463 533 28,200 -1,400 Descending Cleveland Center
01:17PM 40.3692 -79.5722 299° West 463 533 27,100 -1,000 Descending Cleveland Center
01:18PM 40.4286 -79.7239 297° West 463 533 26,200 -550 Descending Cleveland Center
01:19PM 40.4922 -79.8706 300° West 463 533 26,000 -100 Descending Cleveland Center
01:20PM 40.5578 -80.0203 300° West 468 539 26,000  Level Cleveland Center
01:21PM 40.6106 -80.1783 294° West 468 539 26,000  Level Cleveland Center
01:22PM 40.6631 -80.3314 294° West 468 539 26,000  Level Cleveland Center
01:23PM 40.7258 -80.4844 298° West 446 513 26,000  Level Cleveland Center
01:24PM 40.7864 -80.6133 302° West 419 482 26,000 50 Level Cleveland Center
01:25PM 40.8467 -80.7369 303° West 408 470 26,100  Climbing Cleveland Center
01:26PM 40.9069 -80.8661 302° West 408 470 26,000 -50 Descending Cleveland Center
01:27PM 40.9669 -80.9900 303° West 408 470 26,000  Level Cleveland Center
01:28PM 41.0103 -81.1169 294° West 408 470 26,000 50 Level Cleveland Center
01:29PM 41.0575 -81.2550 294° West 408 470 26,100  Climbing Cleveland Center
01:30PM 41.0983 -81.3986 291° West 413 475 26,000 -50 Descending Cleveland Center
01:31PM 41.1428 -81.5536 291° West 413 475 26,000 50 Level Cleveland Center
01:32PM 41.1811 -81.6950 290° West 413 475 26,100  Climbing Cleveland Center
01:33PM 41.2278 -81.8311 295° West 408 470 26,000 -50 Descending Cleveland Center
01:34PM 41.2803 -81.9647 298° West 408 470 26,000  Level Cleveland Center
01:35PM 41.3350 -82.1014 298° West 408 470 26,000 -700 Level Cleveland Center
01:36PM 41.3856 -82.2189 300° West 408 470 24,600 -1,950 Descending Cleveland Center
01:37PM 41.4567 -82.3258 312° West 403 464 22,100 -2,650 Descending Cleveland Center
01:38PM 41.5261 -82.4331 311° West 388 447 19,300 -2,673 Descending Cleveland Center
01:39PM 41.5889 -82.5347 310° West 371 427 17,200 -2,378 Descending Cleveland Center
01:40PM 41.6497 -82.6367 309° West 351 404 14,900 -2,262 Descending Cleveland Center
01:41PM 41.7083 -82.7389 308° West 339 390 12,600 -1,438 Descending Cleveland Center
01:42PM 41.7711 -82.8300 313° West 331 381 12,000 -298 Descending Cleveland Center
01:43PM 41.8508 -82.9081 324° Northwest 343 395 12,000  Level Cleveland Center
01:44PM 41.9075 -82.9883 313° West 343 395 12,000  Level Cleveland Center
01:45PM 41.9786 -83.0831 315° West 331 381 12,000 -246 Level Cleveland Center
01:46PM 42.0356 -83.1469 320° Northwest 248 285 11,500 -443 Descending Cleveland Center
01:47PM 42.0861 -83.2106 317° Northwest 238 274 11,100 -787 Descending Cleveland Center
01:48PM 42.1525 -83.2328 346° North 253 291 9,900 -1,525 Descending Cleveland Center
01:49PM 42.2203 -83.1881 26° Northeast 257 296 8,000 -1,785 Descending Cleveland Center
01:50PM 42.2817 -83.1456 27° Northeast 245 282 6,300 -1,438 Descending Cleveland Center
01:51PM 42.3428 -83.1142 21° North 237 273 5,100 -738 Descending Cleveland Center
01:52PM 42.3789 -83.1719 310° West 186 214 4,800 -295 Descending Cleveland Center